Time;durP1;ratioP1;P1;durP2;ratioP2;P2;SDS_P1;SDS_P2;PMS_P1;PMS_P2;Temp;Humidity;BMP_temperature;BMP_pressure;BME280_temperature;BME280_humidity;BME280_pressure;Samples;Min_cycle;Max_cycle;Signal;HPM_P1;HPM_P2
2021/05/12 00:00:15;;;;;;;3.40;1.50;;;19.70;48.80;;;;;;5093460;28;20039;-63
2021/05/12 00:02:40;;;;;;;3.40;1.30;;;19.70;48.80;;;;;;5093182;28;20024;-63
2021/05/12 00:05:08;;;;;;;2.42;1.10;;;19.70;48.80;;;;;;5093207;28;20024;-64
2021/05/12 00:07:34;;;;;;;2.30;1.15;;;19.70;48.80;;;;;;5093349;28;20024;-65
2021/05/12 00:10:00;;;;;;;2.08;1.08;;;19.70;48.80;;;;;;5091994;28;20073;-63
2021/05/12 00:12:26;;;;;;;3.22;1.20;;;19.80;48.80;;;;;;5097278;28;20115;-64
2021/05/12 00:14:52;;;;;;;2.40;1.23;;;19.70;48.80;;;;;;5097080;28;20044;-63
2021/05/12 00:17:19;;;;;;;2.42;1.38;;;19.70;48.90;;;;;;5097035;28;20046;-63
2021/05/12 00:19:54;;;;;;;3.22;1.80;;;19.70;48.80;;;;;;5101092;28;20096;-64
2021/05/12 00:25:07;;;;;;;2.90;1.35;;;19.70;48.80;;;;;;5099042;28;20097;-63
2021/05/12 00:27:32;;;;;;;1.90;0.93;;;19.70;48.90;;;;;;5097055;28;20024;-63
2021/05/12 00:29:58;;;;;;;3.05;1.38;;;19.70;48.90;;;;;;5096899;28;20025;-63
2021/05/12 00:32:23;;;;;;;2.90;1.25;;;19.70;48.90;;;;;;5097454;28;20095;-64
2021/05/12 00:34:49;;;;;;;2.97;1.45;;;19.70;48.90;;;;;;5096784;28;20040;-64
2021/05/12 00:37:15;;;;;;;2.58;1.40;;;19.70;48.90;;;;;;5096638;28;20020;-64
2021/05/12 00:39:41;;;;;;;3.08;1.45;;;19.70;48.80;;;;;;5096634;28;20039;-63
2021/05/12 00:42:06;;;;;;;3.13;1.40;;;19.70;48.90;;;;;;5096727;28;20024;-63
2021/05/12 00:44:32;;;;;;;4.43;1.58;;;19.70;48.90;;;;;;5097028;28;20380;-64
2021/05/12 00:47:05;;;;;;;2.78;1.40;;;19.70;48.90;;;;;;5098731;28;20051;-63
2021/05/12 00:49:32;;;;;;;2.75;1.30;;;19.70;48.90;;;;;;5098299;28;20024;-63
2021/05/12 00:51:58;;;;;;;3.83;1.45;;;19.70;49.00;;;;;;5097329;28;20039;-64
2021/05/12 00:54:23;;;;;;;4.13;1.58;;;19.70;48.90;;;;;;5096658;28;20028;-64
2021/05/12 00:56:49;;;;;;;3.58;1.65;;;19.70;48.90;;;;;;5096374;28;20116;-63
2021/05/12 00:59:15;;;;;;;3.63;1.67;;;19.70;48.90;;;;;;5096614;28;20368;-64
2021/05/12 01:01:41;;;;;;;3.22;1.75;;;19.70;48.90;;;;;;5096813;28;20040;-63
2021/05/12 01:04:07;;;;;;;2.55;1.38;;;19.70;48.80;;;;;;5095187;28;20027;-63
2021/05/12 01:06:36;;;;;;;3.25;1.77;;;19.70;48.90;;;;;;5096526;28;20095;-64
2021/05/12 01:09:04;;;;;;;3.40;1.33;;;19.70;48.90;;;;;;5096562;28;20085;-64
2021/05/12 01:11:30;;;;;;;3.08;1.45;;;19.70;49.00;;;;;;5096303;28;20079;-64
2021/05/12 01:13:56;;;;;;;3.67;1.58;;;19.70;48.90;;;;;;5096201;28;20101;-64
2021/05/12 01:16:22;;;;;;;3.15;1.70;;;19.60;48.90;;;;;;5095771;28;20013;-64
2021/05/12 01:18:48;;;;;;;3.67;1.60;;;19.70;48.90;;;;;;5094464;28;20032;-64
2021/05/12 01:21:14;;;;;;;5.47;1.65;;;19.70;48.90;;;;;;5096154;28;20028;-63
2021/05/12 01:23:46;;;;;;;3.10;1.40;;;19.60;49.00;;;;;;5094935;28;20034;-63
2021/05/12 01:26:15;;;;;;;3.75;1.85;;;19.60;49.00;;;;;;5095839;28;20020;-63
2021/05/12 01:28:46;;;;;;;3.63;1.60;;;19.60;48.90;;;;;;5095550;28;20021;-63
2021/05/12 01:31:33;;;;;;;3.55;1.75;;;19.60;49.00;;;;;;5095850;28;20396;-64
2021/05/12 01:34:00;;;;;;;4.28;1.63;;;19.60;49.00;;;;;;5095991;28;20050;-63
2021/05/12 01:36:26;;;;;;;4.07;1.85;;;19.60;49.00;;;;;;5095758;28;20108;-64
2021/05/12 01:38:53;;;;;;;2.60;1.42;;;19.60;49.00;;;;;;5095499;28;20042;-63
2021/05/12 01:41:20;;;;;;;3.40;1.40;;;19.60;49.00;;;;;;5095552;28;20031;-64
2021/05/12 01:43:46;;;;;;;3.58;1.60;;;19.60;49.00;;;;;;5095697;28;20048;-64
2021/05/12 01:46:12;;;;;;;4.40;2.10;;;19.60;49.00;;;;;;5095268;28;20107;-64
2021/05/12 01:48:39;;;;;;;3.33;1.60;;;19.60;49.00;;;;;;5095264;28;20032;-64
2021/05/12 01:54:10;;;;;;;5.15;2.13;;;19.60;49.00;;;;;;5071933;28;20078;-63
2021/05/12 01:56:37;;;;;;;4.13;1.67;;;19.60;49.00;;;;;;5072213;28;20191;-64
2021/05/12 01:59:04;;;;;;;3.17;1.65;;;19.60;49.00;;;;;;5055188;28;20542;-64
2021/05/12 02:01:30;;;;;;;4.43;1.70;;;19.60;49.00;;;;;;5072049;28;20464;-64
2021/05/12 02:03:59;;;;;;;3.17;1.60;;;19.50;49.00;;;;;;5071986;28;20111;-64
2021/05/12 02:06:25;;;;;;;3.40;1.63;;;19.50;49.10;;;;;;5071879;28;20455;-64
2021/05/12 02:08:50;;;;;;;3.75;1.77;;;19.50;49.10;;;;;;5071794;28;20037;-64
2021/05/12 02:11:16;;;;;;;2.53;1.55;;;19.60;49.00;;;;;;5071661;28;20024;-64
2021/05/12 02:13:42;;;;;;;3.83;1.88;;;19.50;49.10;;;;;;5071661;28;20047;-64
2021/05/12 02:16:07;;;;;;;3.92;2.00;;;19.50;49.10;;;;;;5071619;28;20027;-64
2021/05/12 02:18:33;;;;;;;4.22;2.10;;;19.50;49.10;;;;;;5071519;28;20410;-64
2021/05/12 02:20:59;;;;;;;3.92;1.70;;;19.50;49.10;;;;;;5071480;28;20045;-64
2021/05/12 02:23:29;;;;;;;4.55;2.22;;;19.50;49.10;;;;;;5071335;28;20040;-64
2021/05/12 02:25:54;;;;;;;4.10;2.38;;;19.50;49.10;;;;;;5092750;28;20079;-64
2021/05/12 02:28:20;;;;;;;5.90;1.77;;;19.50;49.10;;;;;;5094007;28;20105;-63
2021/05/12 02:30:46;;;;;;;4.65;1.95;;;19.50;49.10;;;;;;5093869;28;20028;-63
2021/05/12 02:33:12;;;;;;;3.70;1.88;;;19.50;49.10;;;;;;5093938;28;20336;-63
2021/05/12 02:35:38;;;;;;;3.97;1.80;;;19.50;49.10;;;;;;5094320;28;20085;-63
2021/05/12 02:38:05;;;;;;;3.50;1.85;;;19.50;49.20;;;;;;5094527;28;20450;-63
2021/05/12 02:40:30;;;;;;;4.88;2.25;;;19.50;49.10;;;;;;5094410;28;20031;-63
2021/05/12 02:42:58;;;;;;;5.70;2.03;;;19.50;49.10;;;;;;5094547;28;20023;-63
2021/05/12 02:45:23;;;;;;;3.28;1.67;;;19.50;49.20;;;;;;5094233;28;20020;-63
2021/05/12 02:47:59;;;;;;;3.83;1.90;;;19.50;49.10;;;;;;5094157;28;20514;-63
2021/05/12 02:50:28;;;;;;;3.05;1.75;;;19.50;49.10;;;;;;5094487;28;20064;-63
2021/05/12 02:52:54;;;;;;;4.90;2.10;;;19.50;49.20;;;;;;5094017;28;20032;-63
2021/05/12 02:55:22;;;;;;;5.35;2.05;;;19.50;49.20;;;;;;5093918;28;20020;-63
2021/05/12 02:57:48;;;;;;;4.50;2.15;;;19.50;49.30;;;;;;5094075;28;20032;-64
2021/05/12 03:00:15;;;;;;;4.13;2.03;;;19.50;49.20;;;;;;5092517;28;20171;-63
2021/05/12 03:02:41;;;;;;;5.18;2.38;;;19.50;49.30;;;;;;5095434;28;20028;-64
2021/05/12 03:05:08;;;;;;;4.28;2.40;;;19.50;49.30;;;;;;5096050;28;20124;-63
2021/05/12 03:07:33;;;;;;;4.50;2.08;;;19.50;49.20;;;;;;5094193;28;20020;-63
2021/05/12 03:09:59;;;;;;;4.78;2.00;;;19.50;49.30;;;;;;5093975;28;20486;-63
2021/05/12 03:12:24;;;;;;;3.90;1.92;;;19.50;49.20;;;;;;5093867;28;20024;-63
2021/05/12 03:14:50;;;;;;;5.47;2.00;;;19.50;49.20;;;;;;5093643;28;20024;-63
2021/05/12 03:17:15;;;;;;;3.83;1.85;;;19.50;49.30;;;;;;5093534;28;20031;-63
2021/05/12 03:19:41;;;;;;;5.18;2.22;;;19.50;49.20;;;;;;5093371;28;20035;-63
2021/05/12 03:22:07;;;;;;;5.53;2.53;;;19.50;49.30;;;;;;5093439;28;20070;-63
2021/05/12 03:24:32;;;;;;;5.35;2.13;;;19.50;49.30;;;;;;5093441;28;20054;-63
2021/05/12 03:26:58;;;;;;;5.10;2.25;;;19.50;49.30;;;;;;5093649;28;20028;-63
2021/05/12 03:29:23;;;;;;;3.35;1.90;;;19.50;49.30;;;;;;5093560;28;20027;-63
2021/05/12 03:31:49;;;;;;;4.35;1.95;;;19.50;49.30;;;;;;5093475;28;20066;-63
2021/05/12 03:34:14;;;;;;;4.88;2.10;;;19.50;49.50;;;;;;5093480;28;20108;-64
2021/05/12 03:36:40;;;;;;;4.85;2.10;;;19.40;49.30;;;;;;5093342;28;20149;-63
2021/05/12 03:39:06;;;;;;;4.65;2.22;;;19.50;49.30;;;;;;5093387;28;20032;-63
2021/05/12 03:41:32;;;;;;;4.05;1.73;;;19.40;49.40;;;;;;5093428;28;20422;-63
2021/05/12 03:43:58;;;;;;;4.13;1.98;;;19.40;49.50;;;;;;5093288;28;20488;-64
2021/05/12 03:46:23;;;;;;;3.90;2.05;;;19.40;49.50;;;;;;5098381;28;20028;-64
2021/05/12 03:48:49;;;;;;;4.55;2.00;;;19.40;49.40;;;;;;5100321;28;20399;-64
2021/05/12 03:51:14;;;;;;;5.32;2.40;;;19.40;49.60;;;;;;5100129;28;20089;-64
2021/05/12 03:53:40;;;;;;;4.80;2.05;;;19.40;49.40;;;;;;5100208;28;20033;-64
2021/05/12 03:56:05;;;;;;;4.25;2.30;;;19.40;49.30;;;;;;5099814;28;20030;-64
2021/05/12 03:58:31;;;;;;;4.60;2.08;;;19.40;49.40;;;;;;5100051;28;20119;-64
2021/05/12 04:00:57;;;;;;;3.72;1.90;;;19.40;49.50;;;;;;5099884;28;20107;-64
2021/05/12 04:03:23;;;;;;;4.18;1.80;;;19.40;49.40;;;;;;5100110;28;20077;-64
2021/05/12 04:05:49;;;;;;;3.80;1.88;;;19.40;49.40;;;;;;5100036;28;20043;-63
2021/05/12 04:08:14;;;;;;;5.03;2.30;;;19.40;49.30;;;;;;5099831;28;20087;-63
2021/05/12 04:10:40;;;;;;;5.22;2.10;;;19.40;49.30;;;;;;5098871;28;20077;-63
2021/05/12 04:13:05;;;;;;;4.63;1.98;;;19.40;49.30;;;;;;5100025;28;20032;-63
2021/05/12 04:15:31;;;;;;;4.90;2.35;;;19.30;49.30;;;;;;5099824;28;20095;-63
2021/05/12 04:17:57;;;;;;;4.80;2.00;;;19.40;49.30;;;;;;5100163;28;20441;-63
2021/05/12 04:20:22;;;;;;;4.72;2.10;;;19.40;49.40;;;;;;5100036;28;20032;-63
2021/05/12 04:22:48;;;;;;;4.53;1.90;;;19.40;49.30;;;;;;5100007;28;20507;-63
2021/05/12 04:25:18;;;;;;;3.83;2.10;;;19.40;49.30;;;;;;5099571;28;20052;-65
2021/05/12 04:27:44;;;;;;;5.80;2.08;;;19.40;49.30;;;;;;5099989;28;20032;-64
2021/05/12 04:30:12;;;;;;;5.00;2.25;;;19.30;49.30;;;;;;5100710;28;20039;-64
2021/05/12 04:32:39;;;;;;;5.18;2.40;;;19.40;49.30;;;;;;5101054;28;20464;-63
2021/05/12 04:35:05;;;;;;;4.25;1.95;;;19.40;49.30;;;;;;5109483;28;20593;-65
2021/05/12 04:37:31;;;;;;;5.85;2.22;;;19.30;49.20;;;;;;5110684;28;20143;-64
2021/05/12 04:39:57;;;;;;;4.00;1.90;;;19.30;49.20;;;;;;5110400;28;20125;-65
2021/05/12 04:42:22;;;;;;;3.85;1.90;;;19.30;49.30;;;;;;5110023;28;20020;-65
2021/05/12 04:44:48;;;;;;;3.97;1.77;;;19.40;49.30;;;;;;5112663;28;20092;-64
2021/05/12 04:47:13;;;;;;;5.82;2.22;;;19.40;49.20;;;;;;5110112;28;20106;-64
2021/05/12 04:49:39;;;;;;;4.82;1.95;;;19.40;49.20;;;;;;5110053;28;20059;-65
2021/05/12 04:52:05;;;;;;;3.85;2.00;;;19.30;49.20;;;;;;5109643;28;20485;-64
2021/05/12 04:54:30;;;;;;;5.82;2.42;;;19.30;49.30;;;;;;5100701;28;20032;-64
2021/05/12 04:56:56;;;;;;;3.80;1.92;;;19.40;49.20;;;;;;5097054;28;20022;-64
2021/05/12 04:59:21;;;;;;;4.88;1.85;;;19.30;49.20;;;;;;5096117;28;20090;-64
2021/05/12 05:01:47;;;;;;;4.43;2.20;;;19.30;49.20;;;;;;5096228;28;20032;-64
2021/05/12 05:04:15;;;;;;;3.80;1.90;;;19.30;49.20;;;;;;5095347;28;20069;-64
2021/05/12 05:06:41;;;;;;;4.90;2.33;;;19.40;49.30;;;;;;5096264;28;20016;-65
2021/05/12 05:09:07;;;;;;;5.05;2.20;;;19.40;49.30;;;;;;5096486;28;20020;-64
2021/05/12 05:11:33;;;;;;;5.00;2.25;;;19.40;49.30;;;;;;5096116;28;20028;-64
2021/05/12 05:13:58;;;;;;;3.45;1.73;;;19.30;49.30;;;;;;5095916;28;20039;-64
2021/05/12 05:16:24;;;;;;;4.35;2.20;;;19.30;49.30;;;;;;5095927;28;20456;-64
2021/05/12 05:18:51;;;;;;;5.60;2.22;;;19.40;49.30;;;;;;5095802;28;20031;-64
2021/05/12 05:21:17;;;;;;;4.82;2.03;;;19.30;49.20;;;;;;5096108;28;20038;-64
2021/05/12 05:23:43;;;;;;;5.22;2.20;;;19.30;49.30;;;;;;5095542;28;20480;-64
2021/05/12 05:26:08;;;;;;;4.05;1.95;;;19.40;49.30;;;;;;5095865;28;20028;-64
2021/05/12 05:28:34;;;;;;;4.10;1.90;;;19.40;49.30;;;;;;5095733;28;20047;-64
2021/05/12 05:30:59;;;;;;;4.25;2.00;;;19.30;49.20;;;;;;5095678;28;20032;-64
2021/05/12 05:33:25;;;;;;;3.90;1.83;;;19.30;49.20;;;;;;5096088;28;20016;-64
2021/05/12 05:35:50;;;;;;;4.20;1.60;;;19.30;49.20;;;;;;5096250;28;20020;-64
2021/05/12 05:38:16;;;;;;;4.85;2.28;;;19.40;49.30;;;;;;5096057;28;20028;-64
2021/05/12 05:40:42;;;;;;;4.18;1.67;;;19.40;49.30;;;;;;5095955;28;20035;-64
2021/05/12 05:43:09;;;;;;;3.97;1.90;;;19.30;49.30;;;;;;5095840;28;20361;-64
2021/05/12 05:45:34;;;;;;;4.38;2.00;;;19.30;49.20;;;;;;5098163;28;20020;-64
2021/05/12 05:48:00;;;;;;;3.50;1.90;;;19.40;49.30;;;;;;5096212;28;20531;-64
2021/05/12 05:50:26;;;;;;;4.85;2.35;;;19.30;49.30;;;;;;5095359;28;20024;-64
2021/05/12 05:52:56;;;;;;;3.38;1.85;;;19.30;49.30;;;;;;5095397;28;20130;-64
2021/05/12 05:55:22;;;;;;;4.60;1.95;;;19.40;49.20;;;;;;5095329;28;20463;-64
2021/05/12 05:57:51;;;;;;;3.75;1.70;;;19.40;49.20;;;;;;5094025;28;20471;-64
2021/05/12 06:00:18;;;;;;;4.80;2.17;;;19.30;49.20;;;;;;5095042;28;20039;-64
2021/05/12 06:02:45;;;;;;;6.05;2.30;;;19.40;49.20;;;;;;5095391;28;20054;-64
2021/05/12 06:05:11;;;;;;;4.57;1.85;;;19.40;49.20;;;;;;5095317;28;20031;-65
2021/05/12 06:07:38;;;;;;;4.07;1.98;;;19.40;49.20;;;;;;5095097;28;20031;-65
2021/05/12 06:10:05;;;;;;;5.30;2.05;;;19.40;49.20;;;;;;5094515;28;20027;-63
2021/05/12 06:12:31;;;;;;;4.00;1.77;;;19.40;49.30;;;;;;5094889;28;20027;-62
2021/05/12 06:14:56;;;;;;;5.05;1.77;;;19.30;49.20;;;;;;5094933;28;20028;-63
2021/05/12 06:17:22;;;;;;;4.90;2.08;;;19.30;49.20;;;;;;5094702;28;20020;-63
2021/05/12 06:19:47;;;;;;;4.30;1.80;;;19.30;49.30;;;;;;5094907;28;20054;-63
2021/05/12 06:22:13;;;;;;;5.35;2.83;;;19.40;49.30;;;;;;5094930;28;20069;-63
2021/05/12 06:24:39;;;;;;;3.90;1.65;;;19.30;49.30;;;;;;5094346;28;20040;-63
2021/05/12 06:27:05;;;;;;;5.13;1.80;;;19.40;49.30;;;;;;5094515;28;20047;-63
2021/05/12 06:29:31;;;;;;;4.28;2.13;;;19.40;49.30;;;;;;5094304;28;20081;-64
2021/05/12 06:31:57;;;;;;;3.05;1.77;;;19.40;49.20;;;;;;5094523;28;20028;-63
2021/05/12 06:34:22;;;;;;;3.97;1.70;;;19.50;49.20;;;;;;5094449;28;20027;-63
2021/05/12 06:36:48;;;;;;;3.97;1.63;;;19.40;49.10;;;;;;5094237;28;20103;-63
2021/05/12 06:39:13;;;;;;;4.53;1.98;;;19.50;49.20;;;;;;5094426;28;20105;-68
2021/05/12 06:41:39;;;;;;;3.90;2.00;;;19.50;49.10;;;;;;5093777;28;20038;-66
2021/05/12 06:44:05;;;;;;;3.50;1.70;;;19.50;49.20;;;;;;5101348;28;20020;-66
2021/05/12 06:46:31;;;;;;;5.25;1.90;;;19.50;49.20;;;;;;5108848;28;20027;-64
2021/05/12 06:48:57;;;;;;;5.80;1.77;;;19.50;49.20;;;;;;5092631;28;20020;-67
2021/05/12 06:51:22;;;;;;;4.72;1.98;;;19.50;49.20;;;;;;5093580;28;20139;-67
2021/05/12 06:53:48;;;;;;;4.20;2.00;;;19.50;49.20;;;;;;5093742;28;20061;-64
2021/05/12 06:56:13;;;;;;;4.03;2.03;;;19.50;49.20;;;;;;5093854;28;20028;-65
2021/05/12 06:58:41;;;;;;;4.43;1.73;;;19.50;49.20;;;;;;5091221;28;20040;-66
2021/05/12 07:01:08;;;;;;;4.70;1.80;;;19.50;49.20;;;;;;5093308;28;20032;-66
2021/05/12 07:03:34;;;;;;;4.30;1.90;;;19.50;49.20;;;;;;5093512;28;20436;-66
2021/05/12 07:06:01;;;;;;;3.08;1.42;;;19.50;49.20;;;;;;5093403;28;20032;-67
2021/05/12 07:08:27;;;;;;;4.80;1.70;;;19.50;49.20;;;;;;5093196;28;20032;-66
2021/05/12 07:10:52;;;;;;;4.88;1.90;;;19.50;49.20;;;;;;5093096;28;20032;-66
2021/05/12 07:13:18;;;;;;;6.35;2.20;;;19.50;49.20;;;;;;5083178;28;20094;-67
2021/05/12 07:15:43;;;;;;;3.72;1.65;;;19.60;49.00;;;;;;5093010;28;20110;-67
2021/05/12 07:18:09;;;;;;;3.85;1.80;;;20.10;47.70;;;;;;5076823;28;20475;-66
2021/05/12 07:20:35;;;;;;;3.92;1.80;;;20.10;47.60;;;;;;5072759;28;20036;-68
2021/05/12 07:23:09;;;;;;;5.20;1.80;;;19.90;48.20;;;;;;5092964;28;20016;-67
2021/05/12 07:25:35;;;;;;;3.53;1.50;;;19.80;48.60;;;;;;5093098;28;20048;-68
2021/05/12 07:28:01;;;;;;;4.68;1.65;;;19.70;48.70;;;;;;5093281;28;20506;-67
2021/05/12 07:30:27;;;;;;;4.30;1.73;;;19.70;48.80;;;;;;5093838;28;20020;-70
2021/05/12 07:32:53;;;;;;;4.47;1.80;;;19.70;49.00;;;;;;5095426;28;20020;-69
2021/05/12 07:35:18;;;;;;;3.65;1.75;;;19.60;48.90;;;;;;5099930;28;20057;-68
2021/05/12 07:37:44;;;;;;;5.53;1.95;;;19.70;49.00;;;;;;5092945;28;20047;-67
2021/05/12 07:40:11;;;;;;;4.75;1.92;;;19.70;49.00;;;;;;5092108;28;20510;-68
2021/05/12 07:42:39;;;;;;;7.00;2.08;;;19.70;49.00;;;;;;5078896;28;20025;-66
2021/05/12 07:45:05;;;;;;;3.95;1.67;;;19.70;49.00;;;;;;5072150;28;20021;-67
2021/05/12 07:47:31;;;;;;;5.38;1.92;;;19.70;48.90;;;;;;5083625;28;20028;-67
2021/05/12 07:49:56;;;;;;;3.70;1.70;;;19.80;49.00;;;;;;5073231;28;20031;-67
2021/05/12 07:52:22;;;;;;;5.70;2.25;;;19.80;48.90;;;;;;5075581;28;20111;-66
2021/05/12 07:54:48;;;;;;;6.03;1.50;;;19.80;48.90;;;;;;5078627;28;20035;-69
2021/05/12 07:57:14;;;;;;;3.47;1.38;;;19.80;48.90;;;;;;5092600;28;20058;-70
2021/05/12 07:59:40;;;;;;;4.78;1.42;;;19.80;48.80;;;;;;5076162;28;20044;-70
2021/05/12 08:02:06;;;;;;;4.22;1.80;;;19.90;48.80;;;;;;5079603;28;20027;-69
2021/05/12 08:04:33;;;;;;;5.10;2.00;;;19.90;48.90;;;;;;5092225;28;20024;-68
2021/05/12 08:06:59;;;;;;;5.07;1.88;;;19.90;48.80;;;;;;5092041;28;20016;-67
2021/05/12 08:09:25;;;;;;;4.50;1.65;;;19.90;48.90;;;;;;5092181;28;20078;-69
2021/05/12 08:11:51;;;;;;;2.75;1.50;;;19.90;48.70;;;;;;5091446;28;20028;-67
2021/05/12 08:14:16;;;;;;;6.10;1.63;;;20.00;48.90;;;;;;5092099;28;20024;-68
2021/05/12 08:16:44;;;;;;;3.80;1.40;;;19.90;48.80;;;;;;5092362;28;20020;-67
2021/05/12 08:19:11;;;;;;;3.35;1.40;;;20.00;48.80;;;;;;5092187;28;20483;-67
2021/05/12 08:21:36;;;;;;;6.13;1.98;;;20.00;48.80;;;;;;5092105;28;20119;-66
2021/05/12 08:24:02;;;;;;;3.22;1.42;;;20.00;48.90;;;;;;5091848;28;20085;-67
2021/05/12 08:26:30;;;;;;;4.38;1.73;;;20.00;48.90;;;;;;5077046;28;20036;-68
2021/05/12 08:28:56;;;;;;;3.97;1.40;;;20.00;48.90;;;;;;5072253;28;20028;-68
2021/05/12 08:31:22;;;;;;;3.65;1.48;;;20.00;48.80;;;;;;5083223;28;20132;-69
2021/05/12 08:33:48;;;;;;;4.05;1.80;;;20.00;48.90;;;;;;5074885;28;20032;-68
2021/05/12 08:36:13;;;;;;;5.32;1.83;;;20.00;48.90;;;;;;5075905;28;20358;-69
2021/05/12 08:38:45;;;;;;;2.92;1.25;;;20.00;48.90;;;;;;5075861;28;20021;-68
2021/05/12 08:41:12;;;;;;;4.53;1.60;;;20.00;49.00;;;;;;5075780;28;20032;-68
2021/05/12 08:43:40;;;;;;;4.22;1.58;;;20.00;49.00;;;;;;5091205;28;20016;-69
2021/05/12 08:46:10;;;;;;;3.60;1.30;;;20.00;48.90;;;;;;5075922;28;20025;-69
2021/05/12 08:48:37;;;;;;;2.63;1.40;;;20.10;48.90;;;;;;5075821;28;20111;-70
2021/05/12 08:51:13;;;;;;;3.65;1.48;;;20.10;48.80;;;;;;5075528;28;20036;-69
2021/05/12 08:53:39;;;;;;;3.50;1.58;;;20.10;48.80;;;;;;5075119;28;20027;-68
2021/05/12 08:56:06;;;;;;;4.82;1.50;;;20.00;48.80;;;;;;5075634;28;20028;-68
2021/05/12 08:58:32;;;;;;;3.17;1.42;;;20.00;49.00;;;;;;5075166;28;20392;-68
2021/05/12 09:00:58;;;;;;;3.25;1.65;;;20.00;49.00;;;;;;5074179;28;20025;-67
2021/05/12 09:03:29;;;;;;;3.70;1.75;;;20.00;49.00;;;;;;5077505;28;20039;-67
2021/05/12 09:05:58;;;;;;;4.07;1.38;;;20.10;48.90;;;;;;5074327;28;20047;-69
2021/05/12 09:08:27;;;;;;;4.35;1.85;;;20.10;48.80;;;;;;5087964;28;20023;-66
2021/05/12 09:10:57;;;;;;;3.88;1.58;;;20.10;48.90;;;;;;5095295;28;20558;-67
2021/05/12 09:13:37;;;;;;;4.45;1.67;;;20.10;48.90;;;;;;5092235;28;20518;-67
2021/05/12 09:16:27;;;;;;;5.55;1.70;;;20.10;48.90;;;;;;5093966;28;20027;-66
2021/05/12 09:19:11;;;;;;;3.60;1.67;;;20.10;48.90;;;;;;5075666;28;20052;-67
2021/05/12 09:21:48;;;;;;;4.85;1.70;;;20.10;48.80;;;;;;5074802;28;20025;-67
2021/05/12 09:24:31;;;;;;;3.67;1.35;;;20.20;48.90;;;;;;5078185;28;20123;-68
2021/05/12 09:26:59;;;;;;;6.00;1.77;;;20.20;48.80;;;;;;5073579;28;20116;-67
2021/05/12 09:29:40;;;;;;;3.05;1.45;;;20.20;48.70;;;;;;5092505;28;20500;-65
2021/05/12 09:32:11;;;;;;;4.70;1.58;;;20.20;48.80;;;;;;5094831;28;20043;-65
2021/05/12 09:35:09;;;;;;;9.20;1.80;;;20.20;49.00;;;;;;5075027;28;20025;-67
2021/05/12 09:37:36;;;;;;;6.13;1.58;;;20.20;49.00;;;;;;5061615;28;20036;-66
2021/05/12 09:40:08;;;;;;;5.57;1.63;;;20.20;48.90;;;;;;5076825;28;20384;-66
2021/05/12 09:42:35;;;;;;;5.32;1.60;;;20.20;49.00;;;;;;5074263;28;20020;-66
2021/05/12 09:45:21;;;;;;;5.15;1.60;;;20.10;48.90;;;;;;5077729;28;20047;-66
2021/05/12 09:47:50;;;;;;;6.70;1.98;;;20.20;49.00;;;;;;5079197;28;20024;-66
2021/05/12 09:50:27;;;;;;;3.42;1.40;;;20.20;49.00;;;;;;5093321;28;20020;-66
2021/05/12 09:52:52;;;;;;;5.25;1.55;;;20.20;49.00;;;;;;5081521;28;20040;-66
2021/05/12 09:55:18;;;;;;;6.18;1.52;;;20.20;49.00;;;;;;5089634;28;20060;-66
2021/05/12 09:58:21;;;;;;;5.88;1.88;;;20.10;49.00;;;;;;5082465;28;20059;-67
2021/05/12 10:00:49;;;;;;;3.83;1.73;;;20.10;49.10;;;;;;5094594;28;20089;-66
2021/05/12 10:03:15;;;;;;;6.45;1.45;;;20.10;49.10;;;;;;5079596;28;20365;-66
2021/05/12 10:05:58;;;;;;;2.38;1.25;;;20.10;49.10;;;;;;5072204;28;20119;-66
2021/05/12 10:08:32;;;;;;;3.80;1.40;;;20.10;49.10;;;;;;5074762;28;20511;-66
2021/05/12 10:11:08;;;;;;;4.63;1.20;;;20.10;49.10;;;;;;5079154;28;20032;-66
2021/05/12 10:13:38;;;;;;;3.47;1.40;;;20.10;49.10;;;;;;5077734;28;20052;-65
2021/05/12 10:16:06;;;;;;;3.58;1.30;;;20.20;49.10;;;;;;5086128;28;20028;-66
2021/05/12 10:18:32;;;;;;;5.00;1.40;;;20.20;49.10;;;;;;5094501;28;20382;-65
2021/05/12 10:21:00;;;;;;;4.47;1.42;;;20.20;49.10;;;;;;5094417;28;20032;-65
2021/05/12 10:23:27;;;;;;;4.13;1.25;;;20.20;49.10;;;;;;5093829;28;20020;-65
2021/05/12 10:25:53;;;;;;;5.00;1.33;;;20.20;49.10;;;;;;5094103;28;20034;-66
2021/05/12 10:28:19;;;;;;;6.55;1.75;;;20.20;49.10;;;;;;5093835;28;20035;-65
2021/05/12 10:30:50;;;;;;;2.53;1.25;;;20.20;49.10;;;;;;5089084;28;20032;-66
2021/05/12 10:33:16;;;;;;;5.20;1.48;;;20.20;49.10;;;;;;5088454;28;20059;-67
2021/05/12 10:35:43;;;;;;;5.07;1.10;;;20.20;49.10;;;;;;5085992;28;20038;-67
2021/05/12 10:38:32;;;;;;;3.28;1.20;;;20.20;49.10;;;;;;5082173;28;20028;-67
2021/05/12 10:40:57;;;;;;;4.22;1.40;;;20.20;49.10;;;;;;5073252;28;20507;-67
2021/05/12 10:43:27;;;;;;;4.20;1.20;;;20.30;49.00;;;;;;5077716;28;20025;-66
2021/05/12 10:46:01;;;;;;;4.30;1.40;;;20.40;48.90;;;;;;5093251;28;20024;-66
2021/05/12 10:48:37;;;;;;;6.63;1.63;;;20.40;48.90;;;;;;5091929;28;20028;-67
2021/05/12 10:51:20;;;;;;;4.30;1.25;;;20.40;48.90;;;;;;5090466;28;20150;-66
2021/05/12 10:53:47;;;;;;;3.75;1.35;;;20.40;48.80;;;;;;5084242;28;20032;-69
2021/05/12 10:56:16;;;;;;;5.55;1.52;;;20.40;48.80;;;;;;5092602;28;20024;-69
2021/05/12 10:59:00;;;;;;;2.97;1.38;;;20.50;48.90;;;;;;5092592;28;20023;-67
2021/05/12 11:01:31;;;;;;;3.35;1.27;;;20.50;48.80;;;;;;5084299;28;20107;-66
2021/05/12 11:03:57;;;;;;;5.13;1.60;;;20.40;48.80;;;;;;5087812;28;20024;-65
2021/05/12 11:06:34;;;;;;;3.10;1.27;;;20.40;48.90;;;;;;5084325;28;20042;-65
2021/05/12 11:09:19;;;;;;;7.32;1.70;;;20.40;49.00;;;;;;5073870;28;20021;-67
2021/05/12 11:11:44;;;;;;;3.35;1.35;;;20.30;49.00;;;;;;5086783;28;20036;-66
2021/05/12 11:14:24;;;;;;;4.88;1.95;;;20.30;49.10;;;;;;5073770;28;20028;-65
2021/05/12 11:17:13;;;;;;;3.60;1.45;;;20.30;49.20;;;;;;5082831;28;20065;-65
2021/05/12 11:19:52;;;;;;;4.38;1.23;;;20.30;49.20;;;;;;5085214;28;20496;-66
2021/05/12 11:25:31;;;;;;;4.85;1.90;;;20.40;49.10;;;;;;5072688;28;20052;-65
2021/05/12 11:33:22;;;;;;;4.38;1.50;;;20.30;49.10;;;;;;5072410;28;20027;-65
2021/05/12 11:35:54;;;;;;;2.63;1.15;;;20.40;49.10;;;;;;5073598;28;20496;-64
2021/05/12 11:38:20;;;;;;;5.50;1.40;;;20.40;49.10;;;;;;5092715;28;20035;-65
2021/05/12 11:41:07;;;;;;;3.78;1.40;;;20.30;49.10;;;;;;5080419;28;20032;-64
2021/05/12 11:43:48;;;;;;;5.50;1.60;;;20.40;49.00;;;;;;5082143;28;20059;-65
2021/05/12 11:46:28;;;;;;;4.38;1.30;;;20.40;49.00;;;;;;5094405;28;20032;-67
2021/05/12 11:48:56;;;;;;;2.80;1.30;;;20.40;48.80;;;;;;5087759;28;20024;-68
2021/05/12 11:51:35;;;;;;;3.17;1.40;;;20.50;48.80;;;;;;5085569;28;20028;-67
2021/05/12 11:54:03;;;;;;;4.13;1.50;;;20.40;48.80;;;;;;5087869;28;20016;-67
2021/05/12 11:56:29;;;;;;;4.28;1.45;;;20.50;48.80;;;;;;5077619;28;20154;-66
2021/05/12 11:59:02;;;;;;;2.85;1.30;;;20.50;48.80;;;;;;5074700;28;20028;-67
2021/05/12 12:01:29;;;;;;;3.50;1.38;;;20.50;48.90;;;;;;5073444;28;20027;-69
2021/05/12 12:04:50;;;;;;;3.88;1.35;;;20.50;48.90;;;;;;5076213;28;20051;-69
2021/05/12 12:06:47;;;;;;;2.70;1.20;;;20.50;48.90;;;;;;5084845;28;20072;-68
2021/05/12 12:09:13;;;;;;;5.88;1.42;;;20.40;49.00;;;;;;5076303;28;20027;-71
2021/05/12 12:11:43;;;;;;;6.57;1.23;;;20.40;49.00;;;;;;5075444;28;20024;-68
2021/05/12 12:14:10;;;;;;;3.17;1.38;;;20.50;49.00;;;;;;5075937;28;20357;-67
2021/05/12 12:16:37;;;;;;;4.85;1.77;;;20.50;48.90;;;;;;5087507;28;20043;-69
2021/05/12 12:19:07;;;;;;;4.15;1.15;;;20.50;48.90;;;;;;5095922;28;20024;-69
2021/05/12 12:21:32;;;;;;;2.65;1.10;;;20.50;48.90;;;;;;5095436;28;20028;-69
2021/05/12 12:24:12;;;;;;;7.75;1.08;;;20.50;48.80;;;;;;5083890;28;20079;-69
2021/05/12 12:26:40;;;;;;;4.10;1.42;;;20.50;48.90;;;;;;5075087;28;20027;-69
2021/05/12 12:29:07;;;;;;;3.45;1.40;;;20.50;48.80;;;;;;5092505;28;20077;-69
2021/05/12 12:31:42;;;;;;;4.13;1.33;;;20.50;48.80;;;;;;5088996;28;20024;-69
2021/05/12 12:34:20;;;;;;;3.00;1.25;;;20.50;48.80;;;;;;5068468;28;20512;-70
2021/05/12 12:36:55;;;;;;;3.42;1.48;;;20.60;48.70;;;;;;5078648;28;20047;-69
2021/05/12 12:39:57;;;;;;;4.43;1.40;;;20.60;48.70;;;;;;5085260;28;20025;-68
2021/05/12 12:42:33;;;;;;;3.30;1.13;;;20.60;48.70;;;;;;5088132;28;20025;-68
2021/05/12 12:45:01;;;;;;;2.83;1.08;;;20.60;48.80;;;;;;5073821;28;20117;-68
2021/05/12 12:47:27;;;;;;;4.93;1.50;;;20.60;48.70;;;;;;5084044;28;20027;-69
2021/05/12 12:49:55;;;;;;;3.70;1.30;;;20.60;48.70;;;;;;5078581;28;20082;-69
2021/05/12 12:52:23;;;;;;;5.72;1.60;;;20.60;48.70;;;;;;5077284;28;20032;-69
2021/05/12 12:54:58;;;;;;;3.47;1.30;;;20.70;48.60;;;;;;5085451;28;20024;-68
2021/05/12 12:57:24;;;;;;;3.97;1.17;;;20.80;48.40;;;;;;5094860;28;20479;-70
2021/05/12 13:00:00;;;;;;;3.78;1.20;;;20.80;48.50;;;;;;5094984;28;20036;-68
2021/05/12 13:02:25;;;;;;;2.83;0.93;;;20.80;48.50;;;;;;5094015;28;20055;-69
2021/05/12 13:05:11;;;;;;;2.97;1.25;;;20.80;48.50;;;;;;5093392;28;20052;-69
2021/05/12 13:07:36;;;;;;;3.00;1.10;;;20.80;48.50;;;;;;5094970;28;20108;-67